sensor_id;sensor_type;location;lat;lon;timestamp;P1;durP1;ratioP1;P2;durP2;ratioP2
3647;SDS011;1840;48.892;15.312;2022-10-16T00:01:07;11.60;;;9.17;;
3647;SDS011;1840;48.892;15.312;2022-10-16T00:03:37;11.10;;;8.90;;
3647;SDS011;1840;48.892;15.312;2022-10-16T00:06:06;12.53;;;10.00;;
3647;SDS011;1840;48.892;15.312;2022-10-16T00:08:34;34.47;;;10.60;;
3647;SDS011;1840;48.892;15.312;2022-10-16T00:11:04;20.00;;;10.80;;
3647;SDS011;1840;48.892;15.312;2022-10-16T00:13:34;14.50;;;10.23;;
3647;SDS011;1840;48.892;15.312;2022-10-16T00:16:04;11.60;;;9.30;;
3647;SDS011;1840;48.892;15.312;2022-10-16T00:18:34;22.60;;;10.83;;
3647;SDS011;1840;48.892;15.312;2022-10-16T00:21:03;12.40;;;9.30;;
3647;SDS011;1840;48.892;15.312;2022-10-16T00:23:32;12.60;;;9.50;;
3647;SDS011;1840;48.892;15.312;2022-10-16T00:26:01;17.70;;;9.83;;
3647;SDS011;1840;48.892;15.312;2022-10-16T00:28:31;14.50;;;11.00;;
3647;SDS011;1840;48.892;15.312;2022-10-16T00:31:02;14.60;;;10.10;;
3647;SDS011;1840;48.892;15.312;2022-10-16T00:33:30;17.53;;;11.10;;
3647;SDS011;1840;48.892;15.312;2022-10-16T00:36:00;15.50;;;10.87;;
3647;SDS011;1840;48.892;15.312;2022-10-16T00:38:29;12.40;;;10.13;;
3647;SDS011;1840;48.892;15.312;2022-10-16T00:40:58;14.20;;;10.03;;
3647;SDS011;1840;48.892;15.312;2022-10-16T00:43:37;20.50;;;10.60;;
3647;SDS011;1840;48.892;15.312;2022-10-16T00:46:10;13.00;;;10.17;;
3647;SDS011;1840;48.892;15.312;2022-10-16T00:48:43;15.93;;;11.10;;
3647;SDS011;1840;48.892;15.312;2022-10-16T00:51:17;19.40;;;11.97;;
3647;SDS011;1840;48.892;15.312;2022-10-16T00:53:47;14.43;;;10.50;;
3647;SDS011;1840;48.892;15.312;2022-10-16T00:56:16;16.20;;;11.63;;
3647;SDS011;1840;48.892;15.312;2022-10-16T00:58:45;19.73;;;12.80;;
3647;SDS011;1840;48.892;15.312;2022-10-16T01:01:13;19.70;;;13.23;;
3647;SDS011;1840;48.892;15.312;2022-10-16T01:03:42;16.30;;;12.30;;
3647;SDS011;1840;48.892;15.312;2022-10-16T01:06:21;17.87;;;13.30;;
3647;SDS011;1840;48.892;15.312;2022-10-16T01:08:54;17.53;;;12.23;;
3647;SDS011;1840;48.892;15.312;2022-10-16T01:11:33;14.40;;;11.40;;
3647;SDS011;1840;48.892;15.312;2022-10-16T01:14:08;13.13;;;10.23;;
3647;SDS011;1840;48.892;15.312;2022-10-16T01:16:43;13.43;;;9.63;;
3647;SDS011;1840;48.892;15.312;2022-10-16T01:19:16;11.47;;;9.27;;
3647;SDS011;1840;48.892;15.312;2022-10-16T01:21:54;19.50;;;9.70;;
3647;SDS011;1840;48.892;15.312;2022-10-16T01:24:27;15.53;;;9.60;;
3647;SDS011;1840;48.892;15.312;2022-10-16T01:27:10;10.93;;;9.23;;
3647;SDS011;1840;48.892;15.312;2022-10-16T01:29:41;14.33;;;10.97;;
3647;SDS011;1840;48.892;15.312;2022-10-16T01:32:16;16.13;;;11.10;;
3647;SDS011;1840;48.892;15.312;2022-10-16T01:34:48;13.73;;;10.60;;
3647;SDS011;1840;48.892;15.312;2022-10-16T01:37:22;21.03;;;11.93;;
3647;SDS011;1840;48.892;15.312;2022-10-16T01:39:58;17.10;;;12.67;;
3647;SDS011;1840;48.892;15.312;2022-10-16T01:42:30;56.10;;;15.90;;
3647;SDS011;1840;48.892;15.312;2022-10-16T01:45:03;88.77;;;15.80;;
3647;SDS011;1840;48.892;15.312;2022-10-16T01:47:39;20.00;;;13.23;;
3647;SDS011;1840;48.892;15.312;2022-10-16T01:50:10;18.33;;;14.03;;
3647;SDS011;1840;48.892;15.312;2022-10-16T01:52:40;19.33;;;13.30;;
3647;SDS011;1840;48.892;15.312;2022-10-16T01:55:21;105.07;;;16.40;;
3647;SDS011;1840;48.892;15.312;2022-10-16T01:57:54;17.87;;;13.30;;
3647;SDS011;1840;48.892;15.312;2022-10-16T02:00:23;18.37;;;12.53;;
3647;SDS011;1840;48.892;15.312;2022-10-16T02:02:53;15.30;;;11.80;;
3647;SDS011;1840;48.892;15.312;2022-10-16T02:05:25;15.70;;;11.47;;
3647;SDS011;1840;48.892;15.312;2022-10-16T02:07:56;11.30;;;9.37;;
3647;SDS011;1840;48.892;15.312;2022-10-16T02:10:29;26.33;;;11.47;;
3647;SDS011;1840;48.892;15.312;2022-10-16T02:13:01;297.63;;;17.60;;
3647;SDS011;1840;48.892;15.312;2022-10-16T02:15:33;53.60;;;11.57;;
3647;SDS011;1840;48.892;15.312;2022-10-16T02:18:02;59.10;;;11.70;;
3647;SDS011;1840;48.892;15.312;2022-10-16T02:20:32;224.00;;;15.03;;
3647;SDS011;1840;48.892;15.312;2022-10-16T02:23:04;11.33;;;9.50;;
3647;SDS011;1840;48.892;15.312;2022-10-16T02:25:33;12.53;;;10.90;;
3647;SDS011;1840;48.892;15.312;2022-10-16T02:28:08;37.93;;;10.70;;
3647;SDS011;1840;48.892;15.312;2022-10-16T02:30:40;11.73;;;9.07;;
3647;SDS011;1840;48.892;15.312;2022-10-16T02:33:13;201.60;;;14.93;;
3647;SDS011;1840;48.892;15.312;2022-10-16T02:35:42;248.10;;;15.50;;
3647;SDS011;1840;48.892;15.312;2022-10-16T02:38:14;222.07;;;15.20;;
3647;SDS011;1840;48.892;15.312;2022-10-16T02:40:44;33.57;;;11.17;;
3647;SDS011;1840;48.892;15.312;2022-10-16T02:43:14;14.33;;;9.87;;
3647;SDS011;1840;48.892;15.312;2022-10-16T02:45:43;19.07;;;9.40;;
3647;SDS011;1840;48.892;15.312;2022-10-16T02:48:11;11.30;;;9.40;;
3647;SDS011;1840;48.892;15.312;2022-10-16T02:50:39;15.50;;;9.90;;
3647;SDS011;1840;48.892;15.312;2022-10-16T02:53:07;10.90;;;9.30;;
3647;SDS011;1840;48.892;15.312;2022-10-16T02:55:35;127.57;;;13.60;;
3647;SDS011;1840;48.892;15.312;2022-10-16T02:58:03;162.90;;;14.50;;
3647;SDS011;1840;48.892;15.312;2022-10-16T03:00:32;16.93;;;9.30;;
3647;SDS011;1840;48.892;15.312;2022-10-16T03:03:00;22.83;;;9.80;;
3647;SDS011;1840;48.892;15.312;2022-10-16T03:05:28;14.20;;;10.03;;
3647;SDS011;1840;48.892;15.312;2022-10-16T03:07:56;156.33;;;12.23;;
3647;SDS011;1840;48.892;15.312;2022-10-16T03:10:26;21.30;;;8.73;;
3647;SDS011;1840;48.892;15.312;2022-10-16T03:12:54;22.63;;;9.10;;
3647;SDS011;1840;48.892;15.312;2022-10-16T03:15:22;20.03;;;9.80;;
3647;SDS011;1840;48.892;15.312;2022-10-16T03:17:51;95.40;;;11.00;;
3647;SDS011;1840;48.892;15.312;2022-10-16T03:20:19;82.43;;;10.67;;
3647;SDS011;1840;48.892;15.312;2022-10-16T03:22:47;12.90;;;8.20;;
3647;SDS011;1840;48.892;15.312;2022-10-16T03:25:15;34.37;;;8.47;;
3647;SDS011;1840;48.892;15.312;2022-10-16T03:27:44;145.27;;;12.93;;
3647;SDS011;1840;48.892;15.312;2022-10-16T03:30:12;29.30;;;9.37;;
3647;SDS011;1840;48.892;15.312;2022-10-16T03:32:40;15.93;;;8.83;;
3647;SDS011;1840;48.892;15.312;2022-10-16T03:35:09;12.60;;;9.10;;
3647;SDS011;1840;48.892;15.312;2022-10-16T03:37:38;14.70;;;9.23;;
3647;SDS011;1840;48.892;15.312;2022-10-16T03:40:06;12.30;;;9.77;;
3647;SDS011;1840;48.892;15.312;2022-10-16T03:42:35;11.60;;;10.20;;
3647;SDS011;1840;48.892;15.312;2022-10-16T03:45:03;10.67;;;8.40;;
3647;SDS011;1840;48.892;15.312;2022-10-16T03:47:32;9.90;;;8.30;;
3647;SDS011;1840;48.892;15.312;2022-10-16T03:50:00;12.57;;;10.27;;
3647;SDS011;1840;48.892;15.312;2022-10-16T03:52:30;33.47;;;11.33;;
3647;SDS011;1840;48.892;15.312;2022-10-16T03:54:58;16.73;;;10.93;;
3647;SDS011;1840;48.892;15.312;2022-10-16T03:57:26;13.70;;;9.83;;
3647;SDS011;1840;48.892;15.312;2022-10-16T03:59:55;12.23;;;9.70;;
3647;SDS011;1840;48.892;15.312;2022-10-16T04:02:23;13.70;;;9.33;;
3647;SDS011;1840;48.892;15.312;2022-10-16T04:04:51;15.33;;;10.37;;
3647;SDS011;1840;48.892;15.312;2022-10-16T04:07:19;14.33;;;10.73;;
3647;SDS011;1840;48.892;15.312;2022-10-16T04:09:48;21.10;;;13.50;;
3647;SDS011;1840;48.892;15.312;2022-10-16T04:12:18;15.13;;;11.50;;
3647;SDS011;1840;48.892;15.312;2022-10-16T04:14:46;15.70;;;11.40;;
3647;SDS011;1840;48.892;15.312;2022-10-16T04:17:14;14.53;;;10.80;;
3647;SDS011;1840;48.892;15.312;2022-10-16T04:19:42;14.40;;;10.13;;
3647;SDS011;1840;48.892;15.312;2022-10-16T04:22:10;17.27;;;12.00;;
3647;SDS011;1840;48.892;15.312;2022-10-16T04:24:38;13.73;;;10.67;;
3647;SDS011;1840;48.892;15.312;2022-10-16T04:27:08;15.27;;;12.07;;
3647;SDS011;1840;48.892;15.312;2022-10-16T04:29:36;17.40;;;11.07;;
3647;SDS011;1840;48.892;15.312;2022-10-16T04:32:04;14.07;;;10.43;;
3647;SDS011;1840;48.892;15.312;2022-10-16T04:34:32;13.23;;;10.80;;
3647;SDS011;1840;48.892;15.312;2022-10-16T04:37:00;24.80;;;11.93;;
3647;SDS011;1840;48.892;15.312;2022-10-16T04:39:28;15.40;;;11.40;;
3647;SDS011;1840;48.892;15.312;2022-10-16T04:41:56;12.13;;;10.20;;
3647;SDS011;1840;48.892;15.312;2022-10-16T04:44:27;13.27;;;10.60;;
3647;SDS011;1840;48.892;15.312;2022-10-16T04:46:55;14.70;;;12.13;;
3647;SDS011;1840;48.892;15.312;2022-10-16T04:49:23;13.20;;;10.50;;
3647;SDS011;1840;48.892;15.312;2022-10-16T04:51:51;13.73;;;10.93;;
3647;SDS011;1840;48.892;15.312;2022-10-16T04:54:19;13.57;;;11.10;;
3647;SDS011;1840;48.892;15.312;2022-10-16T04:56:47;14.17;;;11.30;;
3647;SDS011;1840;48.892;15.312;2022-10-16T04:59:17;14.93;;;11.10;;
3647;SDS011;1840;48.892;15.312;2022-10-16T05:01:47;13.00;;;10.33;;
3647;SDS011;1840;48.892;15.312;2022-10-16T05:04:16;12.73;;;10.03;;
3647;SDS011;1840;48.892;15.312;2022-10-16T05:06:44;13.30;;;10.83;;
3647;SDS011;1840;48.892;15.312;2022-10-16T05:09:12;20.47;;;10.90;;
3647;SDS011;1840;48.892;15.312;2022-10-16T05:11:40;78.20;;;13.17;;
3647;SDS011;1840;48.892;15.312;2022-10-16T05:14:08;57.03;;;12.67;;
3647;SDS011;1840;48.892;15.312;2022-10-16T05:16:36;51.37;;;12.07;;
3647;SDS011;1840;48.892;15.312;2022-10-16T05:19:05;18.07;;;10.93;;
3647;SDS011;1840;48.892;15.312;2022-10-16T05:21:53;17.07;;;12.00;;
3647;SDS011;1840;48.892;15.312;2022-10-16T05:24:21;19.70;;;12.63;;
3647;SDS011;1840;48.892;15.312;2022-10-16T05:26:49;24.77;;;10.13;;
3647;SDS011;1840;48.892;15.312;2022-10-16T05:29:17;11.87;;;9.90;;
3647;SDS011;1840;48.892;15.312;2022-10-16T05:31:46;22.40;;;11.20;;
3647;SDS011;1840;48.892;15.312;2022-10-16T05:34:18;12.73;;;9.93;;
3647;SDS011;1840;48.892;15.312;2022-10-16T05:36:46;12.83;;;10.20;;
3647;SDS011;1840;48.892;15.312;2022-10-16T05:39:15;15.33;;;10.40;;
3647;SDS011;1840;48.892;15.312;2022-10-16T05:41:43;15.33;;;11.43;;
3647;SDS011;1840;48.892;15.312;2022-10-16T05:44:11;18.93;;;11.57;;
3647;SDS011;1840;48.892;15.312;2022-10-16T05:46:39;28.60;;;12.00;;
3647;SDS011;1840;48.892;15.312;2022-10-16T05:49:07;31.90;;;12.30;;
3647;SDS011;1840;48.892;15.312;2022-10-16T05:51:37;27.13;;;12.27;;
3647;SDS011;1840;48.892;15.312;2022-10-16T05:54:05;15.57;;;11.40;;
3647;SDS011;1840;48.892;15.312;2022-10-16T05:56:33;15.17;;;12.13;;
3647;SDS011;1840;48.892;15.312;2022-10-16T05:59:02;13.00;;;10.93;;
3647;SDS011;1840;48.892;15.312;2022-10-16T06:01:30;13.13;;;10.30;;
3647;SDS011;1840;48.892;15.312;2022-10-16T06:03:59;15.50;;;12.50;;
3647;SDS011;1840;48.892;15.312;2022-10-16T06:06:31;18.27;;;11.83;;
3647;SDS011;1840;48.892;15.312;2022-10-16T06:09:01;15.83;;;10.93;;
3647;SDS011;1840;48.892;15.312;2022-10-16T06:11:30;12.77;;;10.30;;
3647;SDS011;1840;48.892;15.312;2022-10-16T06:14:00;15.73;;;10.90;;
3647;SDS011;1840;48.892;15.312;2022-10-16T06:16:33;15.40;;;10.73;;
3647;SDS011;1840;48.892;15.312;2022-10-16T06:19:02;21.23;;;11.70;;
3647;SDS011;1840;48.892;15.312;2022-10-16T06:21:32;39.47;;;17.00;;
3647;SDS011;1840;48.892;15.312;2022-10-16T06:24:04;12.33;;;9.87;;
3647;SDS011;1840;48.892;15.312;2022-10-16T06:26:32;130.30;;;16.43;;
3647;SDS011;1840;48.892;15.312;2022-10-16T06:29:00;12.80;;;10.13;;
3647;SDS011;1840;48.892;15.312;2022-10-16T06:31:29;75.87;;;12.57;;
3647;SDS011;1840;48.892;15.312;2022-10-16T06:33:59;113.40;;;15.40;;
3647;SDS011;1840;48.892;15.312;2022-10-16T06:36:28;13.67;;;11.00;;
3647;SDS011;1840;48.892;15.312;2022-10-16T06:38:56;164.37;;;14.90;;
3647;SDS011;1840;48.892;15.312;2022-10-16T06:41:25;16.43;;;10.30;;
3647;SDS011;1840;48.892;15.312;2022-10-16T06:43:53;38.27;;;12.70;;
3647;SDS011;1840;48.892;15.312;2022-10-16T06:46:25;64.47;;;13.60;;
3647;SDS011;1840;48.892;15.312;2022-10-16T06:48:54;50.37;;;15.87;;
3647;SDS011;1840;48.892;15.312;2022-10-16T06:51:23;153.97;;;29.67;;
3647;SDS011;1840;48.892;15.312;2022-10-16T06:53:52;112.63;;;29.77;;
3647;SDS011;1840;48.892;15.312;2022-10-16T06:56:32;139.13;;;35.47;;
3647;SDS011;1840;48.892;15.312;2022-10-16T06:59:00;73.03;;;29.50;;
3647;SDS011;1840;48.892;15.312;2022-10-16T07:01:29;19.20;;;11.87;;
3647;SDS011;1840;48.892;15.312;2022-10-16T07:03:57;12.77;;;8.63;;
3647;SDS011;1840;48.892;15.312;2022-10-16T07:06:26;32.33;;;10.83;;
3647;SDS011;1840;48.892;15.312;2022-10-16T07:08:56;11.87;;;8.90;;
3647;SDS011;1840;48.892;15.312;2022-10-16T07:11:24;13.20;;;10.40;;
3647;SDS011;1840;48.892;15.312;2022-10-16T07:13:54;25.50;;;10.97;;
3647;SDS011;1840;48.892;15.312;2022-10-16T07:16:23;26.20;;;13.03;;
3647;SDS011;1840;48.892;15.312;2022-10-16T07:18:53;18.63;;;11.63;;
3647;SDS011;1840;48.892;15.312;2022-10-16T07:21:25;17.97;;;11.80;;
3647;SDS011;1840;48.892;15.312;2022-10-16T07:23:55;15.03;;;11.50;;
3647;SDS011;1840;48.892;15.312;2022-10-16T07:26:25;14.00;;;11.27;;
3647;SDS011;1840;48.892;15.312;2022-10-16T07:28:56;18.73;;;11.33;;
3647;SDS011;1840;48.892;15.312;2022-10-16T07:31:24;15.10;;;12.07;;
3647;SDS011;1840;48.892;15.312;2022-10-16T07:33:53;14.23;;;11.77;;
3647;SDS011;1840;48.892;15.312;2022-10-16T07:36:21;14.70;;;11.40;;
3647;SDS011;1840;48.892;15.312;2022-10-16T07:38:49;10.43;;;8.73;;
3647;SDS011;1840;48.892;15.312;2022-10-16T07:41:24;12.50;;;10.30;;
3647;SDS011;1840;48.892;15.312;2022-10-16T07:43:52;9.50;;;8.20;;
3647;SDS011;1840;48.892;15.312;2022-10-16T07:46:24;8.80;;;7.40;;
3647;SDS011;1840;48.892;15.312;2022-10-16T07:48:52;10.83;;;8.27;;
3647;SDS011;1840;48.892;15.312;2022-10-16T07:51:21;8.67;;;6.47;;
3647;SDS011;1840;48.892;15.312;2022-10-16T07:53:50;10.37;;;7.90;;
3647;SDS011;1840;48.892;15.312;2022-10-16T07:56:20;9.43;;;7.93;;
3647;SDS011;1840;48.892;15.312;2022-10-16T07:58:49;8.07;;;6.93;;
3647;SDS011;1840;48.892;15.312;2022-10-16T08:01:17;10.13;;;7.97;;
3647;SDS011;1840;48.892;15.312;2022-10-16T08:03:47;9.20;;;6.97;;
3647;SDS011;1840;48.892;15.312;2022-10-16T08:06:18;9.97;;;7.87;;
3647;SDS011;1840;48.892;15.312;2022-10-16T08:08:53;10.20;;;7.70;;
3647;SDS011;1840;48.892;15.312;2022-10-16T08:11:22;10.37;;;7.00;;
3647;SDS011;1840;48.892;15.312;2022-10-16T08:13:50;8.93;;;6.70;;
3647;SDS011;1840;48.892;15.312;2022-10-16T08:16:19;8.30;;;6.50;;
3647;SDS011;1840;48.892;15.312;2022-10-16T08:18:49;8.50;;;6.43;;
3647;SDS011;1840;48.892;15.312;2022-10-16T08:21:18;11.90;;;7.13;;
3647;SDS011;1840;48.892;15.312;2022-10-16T08:23:48;9.90;;;7.67;;
3647;SDS011;1840;48.892;15.312;2022-10-16T08:26:24;11.40;;;7.53;;
3647;SDS011;1840;48.892;15.312;2022-10-16T08:28:56;8.90;;;6.90;;
3647;SDS011;1840;48.892;15.312;2022-10-16T08:31:24;12.33;;;8.10;;
3647;SDS011;1840;48.892;15.312;2022-10-16T08:33:55;12.17;;;7.83;;
3647;SDS011;1840;48.892;15.312;2022-10-16T08:36:25;8.80;;;6.73;;
3647;SDS011;1840;48.892;15.312;2022-10-16T08:38:55;8.80;;;6.57;;
3647;SDS011;1840;48.892;15.312;2022-10-16T08:41:27;14.90;;;6.10;;
3647;SDS011;1840;48.892;15.312;2022-10-16T08:44:20;7.80;;;6.10;;
3647;SDS011;1840;48.892;15.312;2022-10-16T08:47:09;9.30;;;6.03;;
3647;SDS011;1840;48.892;15.312;2022-10-16T08:49:49;7.97;;;6.23;;
3647;SDS011;1840;48.892;15.312;2022-10-16T08:52:25;8.60;;;6.47;;
3647;SDS011;1840;48.892;15.312;2022-10-16T08:54:58;10.97;;;6.20;;
3647;SDS011;1840;48.892;15.312;2022-10-16T08:57:27;9.70;;;6.30;;
3647;SDS011;1840;48.892;15.312;2022-10-16T08:59:59;8.63;;;6.23;;
3647;SDS011;1840;48.892;15.312;2022-10-16T09:02:35;10.70;;;8.07;;
3647;SDS011;1840;48.892;15.312;2022-10-16T09:08:06;9.07;;;6.60;;
3647;SDS011;1840;48.892;15.312;2022-10-16T09:10:43;7.30;;;6.07;;
3647;SDS011;1840;48.892;15.312;2022-10-16T09:13:21;6.67;;;5.40;;
3647;SDS011;1840;48.892;15.312;2022-10-16T09:16:10;7.30;;;5.77;;
3647;SDS011;1840;48.892;15.312;2022-10-16T09:18:45;6.73;;;5.50;;
3647;SDS011;1840;48.892;15.312;2022-10-16T09:21:21;10.63;;;5.50;;
3647;SDS011;1840;48.892;15.312;2022-10-16T09:23:53;7.17;;;6.07;;
3647;SDS011;1840;48.892;15.312;2022-10-16T09:26:25;8.97;;;5.70;;
3647;SDS011;1840;48.892;15.312;2022-10-16T09:28:53;7.93;;;5.10;;
3647;SDS011;1840;48.892;15.312;2022-10-16T09:31:21;7.80;;;5.60;;
3647;SDS011;1840;48.892;15.312;2022-10-16T09:33:52;9.87;;;5.63;;
3647;SDS011;1840;48.892;15.312;2022-10-16T09:36:26;7.50;;;5.17;;
3647;SDS011;1840;48.892;15.312;2022-10-16T09:39:03;5.60;;;4.60;;
3647;SDS011;1840;48.892;15.312;2022-10-16T09:41:37;5.50;;;4.40;;
3647;SDS011;1840;48.892;15.312;2022-10-16T09:44:15;6.73;;;4.63;;
3647;SDS011;1840;48.892;15.312;2022-10-16T09:46:48;6.40;;;4.73;;
3647;SDS011;1840;48.892;15.312;2022-10-16T09:49:20;7.77;;;5.50;;
3647;SDS011;1840;48.892;15.312;2022-10-16T09:52:02;9.27;;;5.60;;
3647;SDS011;1840;48.892;15.312;2022-10-16T09:54:31;10.10;;;6.00;;
3647;SDS011;1840;48.892;15.312;2022-10-16T09:57:06;8.50;;;6.00;;
3647;SDS011;1840;48.892;15.312;2022-10-16T09:59:44;7.33;;;5.83;;
3647;SDS011;1840;48.892;15.312;2022-10-16T10:02:14;8.40;;;6.83;;
3647;SDS011;1840;48.892;15.312;2022-10-16T10:04:47;6.03;;;4.93;;
3647;SDS011;1840;48.892;15.312;2022-10-16T10:07:23;9.33;;;5.70;;
3647;SDS011;1840;48.892;15.312;2022-10-16T10:09:55;7.50;;;5.90;;
3647;SDS011;1840;48.892;15.312;2022-10-16T10:12:26;9.90;;;7.67;;
3647;SDS011;1840;48.892;15.312;2022-10-16T10:14:58;8.00;;;6.47;;
3647;SDS011;1840;48.892;15.312;2022-10-16T10:17:44;6.93;;;5.70;;
3647;SDS011;1840;48.892;15.312;2022-10-16T10:20:16;9.30;;;7.17;;
3647;SDS011;1840;48.892;15.312;2022-10-16T10:22:52;8.27;;;6.43;;
3647;SDS011;1840;48.892;15.312;2022-10-16T10:25:24;8.70;;;5.77;;
3647;SDS011;1840;48.892;15.312;2022-10-16T10:28:17;10.27;;;7.70;;
3647;SDS011;1840;48.892;15.312;2022-10-16T10:31:07;12.33;;;8.90;;
3647;SDS011;1840;48.892;15.312;2022-10-16T10:33:41;10.53;;;7.30;;
3647;SDS011;1840;48.892;15.312;2022-10-16T10:36:28;9.87;;;6.97;;
3647;SDS011;1840;48.892;15.312;2022-10-16T10:39:01;8.70;;;6.30;;
3647;SDS011;1840;48.892;15.312;2022-10-16T10:44:36;8.93;;;6.30;;
3647;SDS011;1840;48.892;15.312;2022-10-16T10:47:21;9.40;;;6.80;;
3647;SDS011;1840;48.892;15.312;2022-10-16T10:49:56;9.20;;;7.60;;
3647;SDS011;1840;48.892;15.312;2022-10-16T10:52:34;12.43;;;8.20;;
3647;SDS011;1840;48.892;15.312;2022-10-16T10:55:31;10.60;;;7.80;;
3647;SDS011;1840;48.892;15.312;2022-10-16T10:58:22;7.50;;;5.93;;
3647;SDS011;1840;48.892;15.312;2022-10-16T11:01:15;8.90;;;6.10;;
3647;SDS011;1840;48.892;15.312;2022-10-16T11:03:50;8.40;;;6.87;;
3647;SDS011;1840;48.892;15.312;2022-10-16T11:06:28;12.20;;;7.20;;
3647;SDS011;1840;48.892;15.312;2022-10-16T11:09:00;8.73;;;6.37;;
3647;SDS011;1840;48.892;15.312;2022-10-16T11:11:42;14.83;;;6.20;;
3647;SDS011;1840;48.892;15.312;2022-10-16T11:14:14;10.70;;;5.27;;
3647;SDS011;1840;48.892;15.312;2022-10-16T11:16:48;8.43;;;6.43;;
3647;SDS011;1840;48.892;15.312;2022-10-16T11:19:22;7.70;;;5.30;;
3647;SDS011;1840;48.892;15.312;2022-10-16T11:22:23;6.97;;;5.73;;
3647;SDS011;1840;48.892;15.312;2022-10-16T11:24:59;9.00;;;5.47;;
3647;SDS011;1840;48.892;15.312;2022-10-16T11:27:34;6.93;;;5.97;;
3647;SDS011;1840;48.892;15.312;2022-10-16T11:30:06;12.07;;;5.93;;
3647;SDS011;1840;48.892;15.312;2022-10-16T11:32:49;7.53;;;6.03;;
3647;SDS011;1840;48.892;15.312;2022-10-16T11:35:38;7.00;;;5.47;;
3647;SDS011;1840;48.892;15.312;2022-10-16T11:38:14;6.53;;;5.20;;
3647;SDS011;1840;48.892;15.312;2022-10-16T11:40:54;7.23;;;5.50;;
3647;SDS011;1840;48.892;15.312;2022-10-16T11:43:28;7.03;;;5.43;;
3647;SDS011;1840;48.892;15.312;2022-10-16T11:46:04;6.90;;;5.10;;
3647;SDS011;1840;48.892;15.312;2022-10-16T11:48:39;7.20;;;5.00;;
3647;SDS011;1840;48.892;15.312;2022-10-16T11:51:14;9.23;;;5.20;;
3647;SDS011;1840;48.892;15.312;2022-10-16T11:53:50;9.47;;;5.80;;
3647;SDS011;1840;48.892;15.312;2022-10-16T11:56:22;6.70;;;5.03;;
3647;SDS011;1840;48.892;15.312;2022-10-16T11:58:54;7.60;;;5.80;;
3647;SDS011;1840;48.892;15.312;2022-10-16T12:01:27;8.90;;;6.20;;
3647;SDS011;1840;48.892;15.312;2022-10-16T12:04:02;10.50;;;7.13;;
3647;SDS011;1840;48.892;15.312;2022-10-16T12:06:39;12.30;;;8.00;;
3647;SDS011;1840;48.892;15.312;2022-10-16T12:09:11;10.40;;;8.50;;
3647;SDS011;1840;48.892;15.312;2022-10-16T12:11:47;10.57;;;9.07;;
3647;SDS011;1840;48.892;15.312;2022-10-16T12:14:21;12.23;;;9.40;;
3647;SDS011;1840;48.892;15.312;2022-10-16T12:20:25;12.47;;;9.70;;
3647;SDS011;1840;48.892;15.312;2022-10-16T12:22:56;16.93;;;9.27;;
3647;SDS011;1840;48.892;15.312;2022-10-16T12:25:29;27.33;;;9.93;;
3647;SDS011;1840;48.892;15.312;2022-10-16T12:27:59;14.37;;;10.90;;
3647;SDS011;1840;48.892;15.312;2022-10-16T12:30:31;14.50;;;11.20;;
3647;SDS011;1840;48.892;15.312;2022-10-16T12:33:02;14.60;;;12.20;;
3647;SDS011;1840;48.892;15.312;2022-10-16T12:35:33;14.60;;;11.83;;
3647;SDS011;1840;48.892;15.312;2022-10-16T12:38:06;13.27;;;11.17;;
3647;SDS011;1840;48.892;15.312;2022-10-16T12:40:44;16.97;;;12.27;;
3647;SDS011;1840;48.892;15.312;2022-10-16T12:43:34;14.30;;;11.40;;
3647;SDS011;1840;48.892;15.312;2022-10-16T12:46:20;18.67;;;12.57;;
3647;SDS011;1840;48.892;15.312;2022-10-16T12:49:04;16.70;;;13.03;;
3647;SDS011;1840;48.892;15.312;2022-10-16T12:51:35;20.07;;;14.30;;
3647;SDS011;1840;48.892;15.312;2022-10-16T12:54:10;18.53;;;13.73;;
3647;SDS011;1840;48.892;15.312;2022-10-16T12:56:43;15.93;;;11.93;;
3647;SDS011;1840;48.892;15.312;2022-10-16T12:59:22;11.13;;;8.83;;
3647;SDS011;1840;48.892;15.312;2022-10-16T13:02:08;14.47;;;10.10;;
3647;SDS011;1840;48.892;15.312;2022-10-16T13:05:13;10.50;;;8.20;;
3647;SDS011;1840;48.892;15.312;2022-10-16T13:08:09;10.63;;;8.37;;
3647;SDS011;1840;48.892;15.312;2022-10-16T13:11:02;10.20;;;7.43;;
3647;SDS011;1840;48.892;15.312;2022-10-16T13:16:40;9.77;;;6.90;;
3647;SDS011;1840;48.892;15.312;2022-10-16T13:19:21;6.80;;;4.47;;
3647;SDS011;1840;48.892;15.312;2022-10-16T13:21:59;5.90;;;3.90;;
3647;SDS011;1840;48.892;15.312;2022-10-16T13:24:38;6.40;;;3.80;;
3647;SDS011;1840;48.892;15.312;2022-10-16T13:27:23;5.70;;;3.10;;
3647;SDS011;1840;48.892;15.312;2022-10-16T13:30:01;5.10;;;3.00;;
3647;SDS011;1840;48.892;15.312;2022-10-16T13:32:36;4.23;;;2.30;;
3647;SDS011;1840;48.892;15.312;2022-10-16T13:35:18;4.23;;;2.30;;
3647;SDS011;1840;48.892;15.312;2022-10-16T13:37:49;4.67;;;2.40;;
3647;SDS011;1840;48.892;15.312;2022-10-16T13:40:18;13.20;;;5.00;;
3647;SDS011;1840;48.892;15.312;2022-10-16T13:42:49;16.70;;;8.40;;
3647;SDS011;1840;48.892;15.312;2022-10-16T13:45:19;4.60;;;2.90;;
3647;SDS011;1840;48.892;15.312;2022-10-16T13:47:48;5.13;;;3.00;;
3647;SDS011;1840;48.892;15.312;2022-10-16T13:50:16;7.20;;;3.67;;
3647;SDS011;1840;48.892;15.312;2022-10-16T13:52:47;5.03;;;3.00;;
3647;SDS011;1840;48.892;15.312;2022-10-16T13:55:16;8.10;;;4.80;;
3647;SDS011;1840;48.892;15.312;2022-10-16T13:57:48;7.03;;;4.63;;
3647;SDS011;1840;48.892;15.312;2022-10-16T14:00:17;10.87;;;5.87;;
3647;SDS011;1840;48.892;15.312;2022-10-16T14:02:50;15.70;;;10.13;;
3647;SDS011;1840;48.892;15.312;2022-10-16T14:05:24;19.77;;;11.70;;
3647;SDS011;1840;48.892;15.312;2022-10-16T14:07:52;33.93;;;17.10;;
3647;SDS011;1840;48.892;15.312;2022-10-16T14:10:23;26.23;;;16.23;;
3647;SDS011;1840;48.892;15.312;2022-10-16T14:12:54;27.47;;;19.20;;
3647;SDS011;1840;48.892;15.312;2022-10-16T14:15:32;43.23;;;24.17;;
3647;SDS011;1840;48.892;15.312;2022-10-16T14:18:01;42.37;;;25.33;;
3647;SDS011;1840;48.892;15.312;2022-10-16T14:20:33;37.67;;;24.03;;
3647;SDS011;1840;48.892;15.312;2022-10-16T14:23:03;34.17;;;22.73;;
3647;SDS011;1840;48.892;15.312;2022-10-16T14:25:45;31.70;;;21.40;;
3647;SDS011;1840;48.892;15.312;2022-10-16T14:28:15;31.40;;;20.13;;
3647;SDS011;1840;48.892;15.312;2022-10-16T14:30:49;41.20;;;27.07;;
3647;SDS011;1840;48.892;15.312;2022-10-16T14:33:22;31.67;;;21.60;;
3647;SDS011;1840;48.892;15.312;2022-10-16T14:36:01;37.23;;;22.40;;
3647;SDS011;1840;48.892;15.312;2022-10-16T14:38:31;32.90;;;20.13;;
3647;SDS011;1840;48.892;15.312;2022-10-16T14:41:00;26.93;;;17.87;;
3647;SDS011;1840;48.892;15.312;2022-10-16T14:43:31;33.83;;;19.60;;
3647;SDS011;1840;48.892;15.312;2022-10-16T14:46:01;29.63;;;19.80;;
3647;SDS011;1840;48.892;15.312;2022-10-16T14:48:31;28.33;;;18.83;;
3647;SDS011;1840;48.892;15.312;2022-10-16T14:51:07;30.90;;;22.13;;
3647;SDS011;1840;48.892;15.312;2022-10-16T14:53:40;29.17;;;19.40;;
3647;SDS011;1840;48.892;15.312;2022-10-16T14:56:09;28.67;;;18.13;;
3647;SDS011;1840;48.892;15.312;2022-10-16T14:58:44;25.27;;;16.33;;
3647;SDS011;1840;48.892;15.312;2022-10-16T15:01:12;26.83;;;16.27;;
3647;SDS011;1840;48.892;15.312;2022-10-16T15:03:40;29.50;;;16.70;;
3647;SDS011;1840;48.892;15.312;2022-10-16T15:06:10;26.73;;;17.57;;
3647;SDS011;1840;48.892;15.312;2022-10-16T15:08:40;23.63;;;15.63;;
3647;SDS011;1840;48.892;15.312;2022-10-16T15:11:09;22.57;;;15.47;;
3647;SDS011;1840;48.892;15.312;2022-10-16T15:13:39;18.50;;;13.90;;
3647;SDS011;1840;48.892;15.312;2022-10-16T15:16:11;18.63;;;13.23;;
3647;SDS011;1840;48.892;15.312;2022-10-16T15:18:40;13.73;;;9.93;;
3647;SDS011;1840;48.892;15.312;2022-10-16T15:21:10;19.20;;;11.50;;
3647;SDS011;1840;48.892;15.312;2022-10-16T15:23:48;19.87;;;12.13;;
3647;SDS011;1840;48.892;15.312;2022-10-16T15:26:17;20.60;;;13.57;;